Time;durP1;ratioP1;P1;durP2;ratioP2;P2;SDS_P1;SDS_P2;PMS_P1;PMS_P2;Temp;Humidity;BMP_temperature;BMP_pressure;BME280_temperature;BME280_humidity;BME280_pressure;Samples;Min_cycle;Max_cycle;Signal;HPM_P1;HPM_P2
2023/08/10 00:02:01;;;;;;;;;;;;;;;;;;4990109;28;19928;-75
2023/08/10 00:04:26;;;;;;;;;;;;;;;;;;4984266;28;20254;-75
2023/08/10 00:06:54;;;;;;;;;;;;;;;;;;4984189;28;20841;-74
2023/08/10 00:09:19;;;;;;;;;;;;;;;;;;5004077;28;19937;-75
2023/08/10 00:11:45;;;;;;;;;;;;;;;;;;4981776;28;20605;-74
2023/08/10 00:14:10;;;;;;;;;;;;;;;;;;4985684;28;19921;-74
2023/08/10 00:16:35;;;;;;;;;;;;;;;;;;5000601;28;19980;-75
2023/08/10 00:19:01;;;;;;;;;;;;;;;;;;4972256;28;19921;-75
2023/08/10 00:21:26;;;;;;;;;;;;;;;;;;4970310;28;20569;-75
2023/08/10 00:23:51;;;;;;;;;;;;;;;;;;5001126;28;19921;-74
2023/08/10 00:26:17;;;;;;;;;;;;;;;;;;4971299;28;19965;-75
2023/08/10 00:28:42;;;;;;;;;;;;;;;;;;4978716;28;20451;-75
2023/08/10 00:31:10;;;;;;;;;;;;;;;;;;4972442;28;19924;-75
2023/08/10 00:33:37;;;;;;;;;;;;;;;;;;4982620;28;19929;-75
2023/08/10 00:36:06;;;;;;;;;;;;;;;;;;4987135;28;19921;-75
2023/08/10 00:38:32;;;;;;;;;;;;;;;;;;4986636;28;20122;-74
2023/08/10 00:41:00;;;;;;;;;;;;;;;;;;4966980;28;20280;-75
2023/08/10 00:43:25;;;;;;;;;;;;;;;;;;4970206;28;19921;-75
2023/08/10 00:45:51;;;;;;;;;;;;;;;;;;4971571;28;20359;-75
2023/08/10 00:48:16;;;;;;;;;;;;;;;;;;4998522;28;20572;-75
2023/08/10 00:50:41;;;;;;;;;;;;;;;;;;4983520;28;19928;-75
2023/08/10 00:53:07;;;;;;;;;;;;;;;;;;4998911;28;19929;-74
2023/08/10 00:55:32;;;;;;;;;;;;;;;;;;4995216;28;19921;-74
2023/08/10 00:57:57;;;;;;;;;;;;;;;;;;4970473;28;19944;-75
2023/08/10 01:00:23;;;;;;;;;;;;;;;;;;5000005;28;20007;-74
2023/08/10 01:02:48;;;;;;;;;;;;;;;;;;4984862;28;20067;-76
2023/08/10 01:05:14;;;;;;;;;;;;;;;;;;4999716;28;19968;-74
2023/08/10 01:07:39;;;;;;;;;;;;;;;;;;4990266;28;20392;-74
2023/08/10 01:10:05;;;;;;;;;;;;;;;;;;4999383;28;19964;-74
2023/08/10 01:12:32;;;;;;;;;;;;;;;;;;5003747;28;19927;-74
2023/08/10 01:14:59;;;;;;;;;;;;;;;;;;4970422;28;19968;-75
2023/08/10 01:17:25;;;;;;;;;;;;;;;;;;4982808;28;19968;-75
2023/08/10 01:19:50;;;;;;;;;;;;;;;;;;4974094;28;20000;-74
2023/08/10 01:22:16;;;;;;;;;;;;;;;;;;5002274;28;20415;-74
2023/08/10 01:24:41;;;;;;;;;;;;;;;;;;5006127;28;19925;-74
2023/08/10 01:27:07;;;;;;;;;;;;;;;;;;4989702;28;20336;-75
2023/08/10 01:29:32;;;;;;;;;;;;;;;;;;4988825;28;20288;-75
2023/08/10 01:32:00;;;;;;;;;;;;;;;;;;5003274;28;19917;-75
2023/08/10 01:34:25;;;;;;;;;;;;;;;;;;5001710;28;19932;-75
2023/08/10 01:36:51;;;;;;;;;;;;;;;;;;4988882;28;19920;-75
2023/08/10 01:39:16;;;;;;;;;;;;;;;;;;4985493;28;19932;-75
2023/08/10 01:41:42;;;;;;;;;;;;;;;;;;4989234;28;20186;-74
2023/08/10 01:44:07;;;;;;;;;;;;;;;;;;4987847;28;20011;-74
2023/08/10 01:46:32;;;;;;;;;;;;;;;;;;4984775;28;19925;-74
2023/08/10 01:48:58;;;;;;;;;;;;;;;;;;4990888;28;20638;-73
2023/08/10 01:51:23;;;;;;;;;;;;;;;;;;4973165;28;19929;-74
2023/08/10 01:53:48;;;;;;;;;;;;;;;;;;5001457;28;19921;-73
2023/08/10 01:56:14;;;;;;;;;;;;;;;;;;4973418;28;19920;-74
2023/08/10 01:58:39;;;;;;;;;;;;;;;;;;5003285;28;19921;-74
2023/08/10 02:01:04;;;;;;;;;;;;;;;;;;4982610;28;20044;-75
2023/08/10 02:03:29;;;;;;;;;;;;;;;;;;4968242;28;19929;-75
2023/08/10 02:05:55;;;;;;;;;;;;;;;;;;4987652;28;19923;-74
2023/08/10 02:08:20;;;;;;;;;;;;;;;;;;4980324;28;19921;-76
2023/08/10 02:10:45;;;;;;;;;;;;;;;;;;5000556;28;19928;-75
2023/08/10 02:13:10;;;;;;;;;;;;;;;;;;4970127;28;19933;-75
2023/08/10 02:15:36;;;;;;;;;;;;;;;;;;5000660;28;20327;-75
2023/08/10 02:18:01;;;;;;;;;;;;;;;;;;4997938;28;19940;-76
2023/08/10 02:20:27;;;;;;;;;;;;;;;;;;4989047;28;19921;-75
2023/08/10 02:22:52;;;;;;;;;;;;;;;;;;4983437;28;19917;-75
2023/08/10 02:25:17;;;;;;;;;;;;;;;;;;4985621;28;21542;-74
2023/08/10 02:27:43;;;;;;;;;;;;;;;;;;4984640;28;20373;-74
2023/08/10 02:30:08;;;;;;;;;;;;;;;;;;4972925;28;19921;-75
2023/08/10 02:32:33;;;;;;;;;;;;;;;;;;4986243;28;20849;-75
2023/08/10 02:34:58;;;;;;;;;;;;;;;;;;4985915;28;19917;-74
2023/08/10 02:37:24;;;;;;;;;;;;;;;;;;4996125;28;21755;-74
2023/08/10 02:39:49;;;;;;;;;;;;;;;;;;5001153;28;20008;-74
2023/08/10 02:42:14;;;;;;;;;;;;;;;;;;4970791;28;19917;-74
2023/08/10 02:44:40;;;;;;;;;;;;;;;;;;4990768;28;19921;-74
2023/08/10 02:47:05;;;;;;;;;;;;;;;;;;4972214;28;19921;-74
2023/08/10 02:49:30;;;;;;;;;;;;;;;;;;4989332;28;19925;-75
2023/08/10 02:51:55;;;;;;;;;;;;;;;;;;4995983;28;19928;-74
2023/08/10 02:54:21;;;;;;;;;;;;;;;;;;4988325;28;20011;-74
2023/08/10 02:56:47;;;;;;;;;;;;;;;;;;4970015;28;19921;-74
2023/08/10 02:59:12;;;;;;;;;;;;;;;;;;5003136;28;19956;-74
2023/08/10 03:01:38;;;;;;;;;;;;;;;;;;4971014;28;20197;-74
2023/08/10 03:04:03;;;;;;;;;;;;;;;;;;5000671;28;19925;-75
2023/08/10 03:06:28;;;;;;;;;;;;;;;;;;4989580;28;20536;-75
2023/08/10 03:08:53;;;;;;;;;;;;;;;;;;4984177;28;19967;-74
2023/08/10 03:11:19;;;;;;;;;;;;;;;;;;5003490;28;19922;-74
2023/08/10 03:13:46;;;;;;;;;;;;;;;;;;4971437;28;21416;-74
2023/08/10 03:16:12;;;;;;;;;;;;;;;;;;5002645;28;19925;-74
2023/08/10 03:18:37;;;;;;;;;;;;;;;;;;5000375;28;19928;-74
2023/08/10 03:21:02;;;;;;;;;;;;;;;;;;4999702;28;19932;-74
2023/08/10 03:23:28;;;;;;;;;;;;;;;;;;4981004;28;20935;-74
2023/08/10 03:25:53;;;;;;;;;;;;;;;;;;5004721;28;19922;-74
2023/08/10 03:28:18;;;;;;;;;;;;;;;;;;4976400;28;20279;-74
2023/08/10 03:30:43;;;;;;;;;;;;;;;;;;4987810;28;19975;-73
2023/08/10 03:33:09;;;;;;;;;;;;;;;;;;5000884;28;19925;-73
2023/08/10 03:35:34;;;;;;;;;;;;;;;;;;5001259;28;20369;-74
2023/08/10 03:37:59;;;;;;;;;;;;;;;;;;5003495;28;19929;-73
2023/08/10 03:40:25;;;;;;;;;;;;;;;;;;4973655;28;20018;-74
2023/08/10 03:42:50;;;;;;;;;;;;;;;;;;5005065;28;21573;-73
2023/08/10 03:45:15;;;;;;;;;;;;;;;;;;4986254;28;20007;-74
2023/08/10 03:47:41;;;;;;;;;;;;;;;;;;4987517;28;20284;-74
2023/08/10 03:50:07;;;;;;;;;;;;;;;;;;4969494;28;20028;-74
2023/08/10 03:52:32;;;;;;;;;;;;;;;;;;4989502;28;19921;-73
2023/08/10 03:54:57;;;;;;;;;;;;;;;;;;4999336;28;20025;-74
2023/08/10 03:57:23;;;;;;;;;;;;;;;;;;4999134;28;19917;-74
2023/08/10 03:59:48;;;;;;;;;;;;;;;;;;4969414;28;20342;-74
2023/08/10 04:02:14;;;;;;;;;;;;;;;;;;5000739;28;20019;-74
2023/08/10 04:04:39;;;;;;;;;;;;;;;;;;4971575;28;20018;-75
2023/08/10 04:07:04;;;;;;;;;;;;;;;;;;4984078;28;19917;-74
2023/08/10 04:09:30;;;;;;;;;;;;;;;;;;5001907;28;19921;-75
2023/08/10 04:11:55;;;;;;;;;;;;;;;;;;4981236;28;19932;-74
2023/08/10 04:14:20;;;;;;;;;;;;;;;;;;4972243;28;19925;-74
2023/08/10 04:16:46;;;;;;;;;;;;;;;;;;4967944;28;19930;-75
2023/08/10 04:19:11;;;;;;;;;;;;;;;;;;4959990;28;20915;-75
2023/08/10 04:21:40;;;;;;;;;;;;;;;;;;4964453;28;19933;-74
2023/08/10 04:24:05;;;;;;;;;;;;;;;;;;4960385;28;19922;-75
2023/08/10 04:26:30;;;;;;;;;;;;;;;;;;4964079;28;19948;-74
2023/08/10 04:28:55;;;;;;;;;;;;;;;;;;4948417;28;19925;-75
2023/08/10 04:31:21;;;;;;;;;;;;;;;;;;4963192;28;20198;-73
2023/08/10 04:33:46;;;;;;;;;;;;;;;;;;4963066;28;19949;-74
2023/08/10 04:36:11;;;;;;;;;;;;;;;;;;4945069;28;19928;-74
2023/08/10 04:38:37;;;;;;;;;;;;;;;;;;4963859;28;19949;-74
2023/08/10 04:41:02;;;;;;;;;;;;;;;;;;4962200;28;19961;-73
2023/08/10 04:43:28;;;;;;;;;;;;;;;;;;4964437;28;19928;-74
2023/08/10 04:45:53;;;;;;;;;;;;;;;;;;4965739;28;20574;-73
2023/08/10 04:48:19;;;;;;;;;;;;;;;;;;4948758;28;20141;-73
2023/08/10 04:50:45;;;;;;;;;;;;;;;;;;4967134;28;20452;-74
2023/08/10 04:53:10;;;;;;;;;;;;;;;;;;4944142;28;20463;-73
2023/08/10 04:55:35;;;;;;;;;;;;;;;;;;4963035;28;19925;-73
2023/08/10 04:58:01;;;;;;;;;;;;;;;;;;4963627;28;19918;-73
2023/08/10 05:00:29;;;;;;;;;;;;;;;;;;4962897;28;20423;-72
2023/08/10 05:02:54;;;;;;;;;;;;;;;;;;4963728;28;19922;-73
2023/08/10 05:05:19;;;;;;;;;;;;;;;;;;4964284;28;19980;-73
2023/08/10 05:07:46;;;;;;;;;;;;;;;;;;4965658;28;19922;-72
2023/08/10 05:10:12;;;;;;;;;;;;;;;;;;4982424;28;19921;-73
2023/08/10 05:12:38;;;;;;;;;;;;;;;;;;4976886;28;20522;-74
2023/08/10 05:15:04;;;;;;;;;;;;;;;;;;4978809;28;19922;-73
2023/08/10 05:17:29;;;;;;;;;;;;;;;;;;4969699;28;20076;-73
2023/08/10 05:19:54;;;;;;;;;;;;;;;;;;4973782;28;19922;-73
2023/08/10 05:22:20;;;;;;;;;;;;;;;;;;4968332;28;19918;-74
2023/08/10 05:24:45;;;;;;;;;;;;;;;;;;4967992;28;19967;-73
2023/08/10 05:27:11;;;;;;;;;;;;;;;;;;4953548;28;19929;-74
2023/08/10 05:29:36;;;;;;;;;;;;;;;;;;4969446;28;19926;-74
2023/08/10 05:32:01;;;;;;;;;;;;;;;;;;4938809;28;19977;-75
2023/08/10 05:34:27;;;;;;;;;;;;;;;;;;4948702;28;20434;-74
2023/08/10 05:36:52;;;;;;;;;;;;;;;;;;4954300;28;19921;-74
2023/08/10 05:39:17;;;;;;;;;;;;;;;;;;4963658;28;19960;-74
2023/08/10 05:41:43;;;;;;;;;;;;;;;;;;4966730;28;20887;-74
2023/08/10 05:44:08;;;;;;;;;;;;;;;;;;4976663;28;19918;-74
2023/08/10 05:46:34;;;;;;;;;;;;;;;;;;4966558;28;20759;-75
2023/08/10 05:48:59;;;;;;;;;;;;;;;;;;4965455;28;20403;-74
2023/08/10 05:51:24;;;;;;;;;;;;;;;;;;4952598;28;20008;-74
2023/08/10 05:53:49;;;;;;;;;;;;;;;;;;4968988;28;20305;-74
2023/08/10 05:56:15;;;;;;;;;;;;;;;;;;4964318;28;20016;-74
2023/08/10 05:58:40;;;;;;;;;;;;;;;;;;4969938;28;20597;-74
2023/08/10 06:01:05;;;;;;;;;;;;;;;;;;4969119;28;20025;-73
2023/08/10 06:03:31;;;;;;;;;;;;;;;;;;4966042;28;19922;-74
2023/08/10 06:05:56;;;;;;;;;;;;;;;;;;4957687;28;19928;-74
2023/08/10 06:08:22;;;;;;;;;;;;;;;;;;4949155;28;19969;-73
2023/08/10 06:10:49;;;;;;;;;;;;;;;;;;4960326;28;20604;-74
2023/08/10 06:13:14;;;;;;;;;;;;;;;;;;4954657;28;20497;-74
2023/08/10 06:15:40;;;;;;;;;;;;;;;;;;4951936;28;19930;-74
2023/08/10 06:18:05;;;;;;;;;;;;;;;;;;4943878;28;20000;-75
2023/08/10 06:20:32;;;;;;;;;;;;;;;;;;4960836;28;19922;-73
2023/08/10 06:22:57;;;;;;;;;;;;;;;;;;4954188;28;19964;-73
2023/08/10 06:25:24;;;;;;;;;;;;;;;;;;4970474;28;20044;-72
2023/08/10 06:27:49;;;;;;;;;;;;;;;;;;4944862;28;19922;-73
2023/08/10 06:30:15;;;;;;;;;;;;;;;;;;4961634;28;19926;-74
2023/08/10 06:32:43;;;;;;;;;;;;;;;;;;4959169;28;20274;-73
2023/08/10 06:35:09;;;;;;;;;;;;;;;;;;4960408;28;19998;-74
2023/08/10 06:37:34;;;;;;;;;;;;;;;;;;4973449;28;19922;-73
2023/08/10 06:39:59;;;;;;;;;;;;;;;;;;4973010;28;19922;-73
2023/08/10 06:42:25;;;;;;;;;;;;;;;;;;4947135;28;20320;-74
2023/08/10 06:44:50;;;;;;;;;;;;;;;;;;4961132;28;19922;-73
2023/08/10 06:47:15;;;;;;;;;;;;;;;;;;4947550;28;19921;-73
2023/08/10 06:49:40;;;;;;;;;;;;;;;;;;4961400;28;19976;-74
2023/08/10 06:52:06;;;;;;;;;;;;;;;;;;4962129;28;20399;-73
2023/08/10 06:54:31;;;;;;;;;;;;;;;;;;4963653;28;19922;-74
2023/08/10 06:56:56;;;;;;;;;;;;;;;;;;4960885;28;20444;-74
2023/08/10 06:59:22;;;;;;;;;;;;;;;;;;4960980;28;19925;-74
2023/08/10 07:01:47;;;;;;;;;;;;;;;;;;4962531;28;20455;-73
2023/08/10 07:04:14;;;;;;;;;;;;;;;;;;4960276;28;20020;-74
2023/08/10 07:06:42;;;;;;;;;;;;;;;;;;4964711;28;19932;-74
2023/08/10 07:09:09;;;;;;;;;;;;;;;;;;4961406;28;20183;-74
2023/08/10 07:11:34;;;;;;;;;;;;;;;;;;4961638;28;19918;-74
2023/08/10 07:14:01;;;;;;;;;;;;;;;;;;4962221;28;19913;-74
2023/08/10 07:16:26;;;;;;;;;;;;;;;;;;4949050;28;19934;-73
2023/08/10 07:18:54;;;;;;;;;;;;;;;;;;4964587;28;19976;-74
2023/08/10 07:21:20;;;;;;;;;;;;;;;;;;4961836;28;19973;-73
2023/08/10 07:23:46;;;;;;;;;;;;;;;;;;4967225;28;20220;-74
2023/08/10 07:26:11;;;;;;;;;;;;;;;;;;4966673;28;20336;-73
2023/08/10 07:28:37;;;;;;;;;;;;;;;;;;4961135;28;19917;-73
2023/08/10 07:31:03;;;;;;;;;;;;;;;;;;4962971;28;19928;-74
2023/08/10 07:33:28;;;;;;;;;;;;;;;;;;4960108;28;19922;-73
2023/08/10 07:35:54;;;;;;;;;;;;;;;;;;4943436;28;19929;-74
2023/08/10 07:38:19;;;;;;;;;;;;;;;;;;4964462;28;19973;-73
2023/08/10 07:40:44;;;;;;;;;;;;;;;;;;4964271;28;20060;-73
2023/08/10 07:43:10;;;;;;;;;;;;;;;;;;4951450;28;19932;-74
2023/08/10 07:45:35;;;;;;;;;;;;;;;;;;4965909;28;19961;-73
2023/08/10 07:48:00;;;;;;;;;;;;;;;;;;4964794;28;19944;-72
2023/08/10 07:50:25;;;;;;;;;;;;;;;;;;4945659;28;19925;-73
2023/08/10 07:52:54;;;;;;;;;;;;;;;;;;4965555;28;19977;-72
2023/08/10 07:55:19;;;;;;;;;;;;;;;;;;4957087;28;19926;-72
2023/08/10 07:57:45;;;;;;;;;;;;;;;;;;4964628;28;19918;-73
2023/08/10 08:00:10;;;;;;;;;;;;;;;;;;4969405;28;20368;-72
2023/08/10 08:02:35;;;;;;;;;;;;;;;;;;4947891;28;19972;-73
2023/08/10 08:05:01;;;;;;;;;;;;;;;;;;4967567;28;20086;-73
2023/08/10 08:07:30;;;;;;;;;;;;;;;;;;4966104;28;19925;-71
2023/08/10 08:09:55;;;;;;;;;;;;;;;;;;4966422;28;19929;-73
2023/08/10 08:12:21;;;;;;;;;;;;;;;;;;4960766;28;19948;-72
2023/08/10 08:14:46;;;;;;;;;;;;;;;;;;4963555;28;20543;-71
2023/08/10 08:17:14;;;;;;;;;;;;;;;;;;4964932;28;19930;-72
2023/08/10 08:19:40;;;;;;;;;;;;;;;;;;4964693;28;19925;-74
2023/08/10 08:22:05;;;;;;;;;;;;;;;;;;4951335;28;19922;-72
2023/08/10 08:24:31;;;;;;;;;;;;;;;;;;4963812;28;20013;-73
2023/08/10 08:26:59;;;;;;;;;;;;;;;;;;4958268;28;20867;-74
2023/08/10 08:29:27;;;;;;;;;;;;;;;;;;4950282;28;19922;-74
2023/08/10 08:31:52;;;;;;;;;;;;;;;;;;4947576;28;19929;-73
2023/08/10 08:34:18;;;;;;;;;;;;;;;;;;4965746;28;19968;-71
2023/08/10 08:36:46;;;;;;;;;;;;;;;;;;4965272;28;19944;-73
2023/08/10 08:39:11;;;;;;;;;;;;;;;;;;4966428;28;19926;-72
2023/08/10 08:41:37;;;;;;;;;;;;;;;;;;4950168;28;20005;-73
2023/08/10 08:44:03;;;;;;;;;;;;;;;;;;4965232;28;19953;-73
2023/08/10 08:46:29;;;;;;;;;;;;;;;;;;4962954;28;19918;-74
2023/08/10 08:48:54;;;;;;;;;;;;;;;;;;4979126;28;19929;-73
2023/08/10 08:51:19;;;;;;;;;;;;;;;;;;4964689;28;20807;-72
2023/08/10 08:53:44;;;;;;;;;;;;;;;;;;4948779;28;19922;-74
2023/08/10 08:56:10;;;;;;;;;;;;;;;;;;4950577;28;20368;-71
2023/08/10 08:58:35;;;;;;;;;;;;;;;;;;4961736;28;20923;-73
2023/08/10 09:01:00;;;;;;;;;;;;;;;;;;4947849;28;20313;-71
2023/08/10 09:03:26;;;;;;;;;;;;;;;;;;4962868;28;19918;-73
2023/08/10 09:05:54;;;;;;;;;;;;;;;;;;4967527;28;20541;-71
2023/08/10 09:08:19;;;;;;;;;;;;;;;;;;4963162;28;19929;-72
2023/08/10 09:10:45;;;;;;;;;;;;;;;;;;4962074;28;19945;-74
2023/08/10 09:13:11;;;;;;;;;;;;;;;;;;4962405;28;19922;-72
2023/08/10 09:15:36;;;;;;;;;;;;;;;;;;4962916;28;19941;-73
2023/08/10 09:18:04;;;;;;;;;;;;;;;;;;4972973;28;19930;-73
2023/08/10 09:20:29;;;;;;;;;;;;;;;;;;4963229;28;19928;-73
2023/08/10 09:22:56;;;;;;;;;;;;;;;;;;4964692;28;21295;-74
2023/08/10 09:25:22;;;;;;;;;;;;;;;;;;4962757;28;19924;-74
2023/08/10 09:27:49;;;;;;;;;;;;;;;;;;4960611;28;20309;-74
2023/08/10 09:30:17;;;;;;;;;;;;;;;;;;4967401;28;20361;-71
2023/08/10 09:32:45;;;;;;;;;;;;;;;;;;4961805;28;20189;-73
2023/08/10 09:35:10;;;;;;;;;;;;;;;;;;4963375;28;19918;-74
2023/08/10 09:37:36;;;;;;;;;;;;;;;;;;4962759;28;19925;-73
2023/08/10 09:40:05;;;;;;;;;;;;;;;;;;4959783;28;20736;-73
2023/08/10 09:42:33;;;;;;;;;;;;;;;;;;4947166;28;20025;-73
2023/08/10 09:45:02;;;;;;;;;;;;;;;;;;4949147;28;20852;-73
2023/08/10 09:47:27;;;;;;;;;;;;;;;;;;4964243;28;20266;-72
2023/08/10 09:49:55;;;;;;;;;;;;;;;;;;4960663;28;19971;-73
2023/08/10 09:52:21;;;;;;;;;;;;;;;;;;4958945;28;20301;-73
2023/08/10 09:54:46;;;;;;;;;;;;;;;;;;4962023;28;19925;-73
2023/08/10 09:57:14;;;;;;;;;;;;;;;;;;4978022;28;19922;-73
2023/08/10 09:59:39;;;;;;;;;;;;;;;;;;4964269;28;20375;-74
2023/08/10 10:02:05;;;;;;;;;;;;;;;;;;4964059;28;19922;-74
2023/08/10 10:04:33;;;;;;;;;;;;;;;;;;4952757;28;19929;-74
2023/08/10 10:06:58;;;;;;;;;;;;;;;;;;4948870;28;19922;-72
2023/08/10 10:09:24;;;;;;;;;;;;;;;;;;4946981;28;20758;-71
2023/08/10 10:11:49;;;;;;;;;;;;;;;;;;4964756;28;20027;-75
2023/08/10 10:14:15;;;;;;;;;;;;;;;;;;4962097;28;21905;-74
2023/08/10 10:16:42;;;;;;;;;;;;;;;;;;4961822;28;20520;-72
2023/08/10 10:19:08;;;;;;;;;;;;;;;;;;4962208;28;20201;-74
2023/08/10 10:21:36;;;;;;;;;;;;;;;;;;4964209;28;20389;-73
2023/08/10 10:24:06;;;;;;;;;;;;;;;;;;4961623;28;19918;-73
2023/08/10 10:26:31;;;;;;;;;;;;;;;;;;4967458;28;19917;-73
2023/08/10 10:28:59;;;;;;;;;;;;;;;;;;4964402;28;19926;-73
2023/08/10 10:31:24;;;;;;;;;;;;;;;;;;4961959;28;19918;-73
2023/08/10 10:33:49;;;;;;;;;;;;;;;;;;4961874;28;19949;-73
2023/08/10 10:36:18;;;;;;;;;;;;;;;;;;4965237;28;19921;-73
2023/08/10 10:38:43;;;;;;;;;;;;;;;;;;4947541;28;19922;-73
2023/08/10 10:41:11;;;;;;;;;;;;;;;;;;4955935;28;20337;-73
2023/08/10 10:43:39;;;;;;;;;;;;;;;;;;4961775;28;21819;-73
2023/08/10 10:46:04;;;;;;;;;;;;;;;;;;4978480;28;19924;-74
2023/08/10 10:48:29;;;;;;;;;;;;;;;;;;4961301;28;20868;-73
2023/08/10 10:50:54;;;;;;;;;;;;;;;;;;4947949;28;21785;-73
2023/08/10 10:53:20;;;;;;;;;;;;;;;;;;4947176;28;19928;-74
2023/08/10 10:55:51;;;;;;;;;;;;;;;;;;4967276;28;19929;-73
2023/08/10 10:58:16;;;;;;;;;;;;;;;;;;4963612;28;20278;-73
2023/08/10 11:00:41;;;;;;;;;;;;;;;;;;4974743;28;20361;-74
2023/08/10 11:03:07;;;;;;;;;;;;;;;;;;4964817;28;20428;-74
2023/08/10 11:05:37;;;;;;;;;;;;;;;;;;4946647;28;20142;-73
2023/08/10 11:08:12;;;;;;;;;;;;;;;;;;4962847;28;20675;-74
2023/08/10 11:10:37;;;;;;;;;;;;;;;;;;4960184;28;19918;-73
2023/08/10 11:13:03;;;;;;;;;;;;;;;;;;4966574;28;19969;-72
2023/08/10 11:15:33;;;;;;;;;;;;;;;;;;4962822;28;19918;-72
2023/08/10 11:17:59;;;;;;;;;;;;;;;;;;4947343;28;20507;-73
2023/08/10 11:20:26;;;;;;;;;;;;;;;;;;4962582;28;20642;-73
2023/08/10 11:22:52;;;;;;;;;;;;;;;;;;4962714;28;19929;-75
2023/08/10 11:25:20;;;;;;;;;;;;;;;;;;4975034;28;19922;-71
2023/08/10 11:27:48;;;;;;;;;;;;;;;;;;4959789;28;19922;-73
2023/08/10 11:30:13;;;;;;;;;;;;;;;;;;4948610;28;19921;-72
2023/08/10 11:32:39;;;;;;;;;;;;;;;;;;4962224;28;19932;-71
2023/08/10 11:35:04;;;;;;;;;;;;;;;;;;4946125;28;19929;-73
2023/08/10 11:37:30;;;;;;;;;;;;;;;;;;4947818;28;20365;-72
2023/08/10 11:39:55;;;;;;;;;;;;;;;;;;4971267;28;20046;-72
2023/08/10 11:42:21;;;;;;;;;;;;;;;;;;4964294;28;20028;-73
2023/08/10 11:44:50;;;;;;;;;;;;;;;;;;4960607;28;19929;-75
2023/08/10 11:47:15;;;;;;;;;;;;;;;;;;4966007;28;20281;-77
2023/08/10 11:49:41;;;;;;;;;;;;;;;;;;4939741;28;19914;-74
2023/08/10 11:52:07;;;;;;;;;;;;;;;;;;4963464;28;19953;-74
2023/08/10 11:54:34;;;;;;;;;;;;;;;;;;4964746;28;19922;-74
2023/08/10 11:57:02;;;;;;;;;;;;;;;;;;4967517;28;19952;-73
2023/08/10 11:59:27;;;;;;;;;;;;;;;;;;4968688;28;19926;-74
2023/08/10 12:01:57;;;;;;;;;;;;;;;;;;4957559;28;19998;-72
2023/08/10 12:04:23;;;;;;;;;;;;;;;;;;4962338;28;19922;-75
2023/08/10 12:06:48;;;;;;;;;;;;;;;;;;4959448;28;19992;-74
2023/08/10 12:09:14;;;;;;;;;;;;;;;;;;4966814;28;20021;-77
2023/08/10 12:11:39;;;;;;;;;;;;;;;;;;4965988;28;20297;-75
2023/08/10 12:14:05;;;;;;;;;;;;;;;;;;4965320;28;20657;-77
2023/08/10 12:16:30;;;;;;;;;;;;;;;;;;4954374;28;19928;-75
2023/08/10 12:18:56;;;;;;;;;;;;;;;;;;4999818;28;19925;-77
2023/08/10 12:21:21;;;;;;;;;;;;;;;;;;5002819;28;20016;-74
2023/08/10 12:23:46;;;;;;;;;;;;;;;;;;4986135;28;19925;-75
2023/08/10 12:26:13;;;;;;;;;;;;;;;;;;4983988;28;19928;-73
2023/08/10 12:28:38;;;;;;;;;;;;;;;;;;4995566;28;19917;-76
2023/08/10 12:31:03;;;;;;;;;;;;;;;;;;4971745;28;20003;-75
2023/08/10 12:33:28;;;;;;;;;;;;;;;;;;4998332;28;19931;-76
2023/08/10 12:35:54;;;;;;;;;;;;;;;;;;4968871;28;20042;-75
2023/08/10 12:38:20;;;;;;;;;;;;;;;;;;4997154;28;19917;-76
2023/08/10 12:40:45;;;;;;;;;;;;;;;;;;4970071;28;19995;-77
2023/08/10 12:43:11;;;;;;;;;;;;;;;;;;4981352;28;20436;-77
2023/08/10 12:45:39;;;;;;;;;;;;;;;;;;4988362;28;20605;-74
2023/08/10 12:48:07;;;;;;;;;;;;;;;;;;4988447;28;19931;-75
2023/08/10 12:50:32;;;;;;;;;;;;;;;;;;5005183;28;19979;-75
2023/08/10 12:52:58;;;;;;;;;;;;;;;;;;4986539;28;20270;-75
2023/08/10 12:55:23;;;;;;;;;;;;;;;;;;4972508;28;19964;-75
2023/08/10 12:57:48;;;;;;;;;;;;;;;;;;4970179;28;19921;-76
2023/08/10 13:00:14;;;;;;;;;;;;;;;;;;4980392;28;19951;-76
2023/08/10 13:02:39;;;;;;;;;;;;;;;;;;4987586;28;20280;-74
2023/08/10 13:05:04;;;;;;;;;;;;;;;;;;4987041;28;20020;-76
2023/08/10 13:07:30;;;;;;;;;;;;;;;;;;4990506;28;20285;-76
2023/08/10 13:09:55;;;;;;;;;;;;;;;;;;4976258;28;20504;-77
2023/08/10 13:12:20;;;;;;;;;;;;;;;;;;4992233;28;19988;-73
2023/08/10 13:14:45;;;;;;;;;;;;;;;;;;4985466;28;19921;-75
2023/08/10 13:17:11;;;;;;;;;;;;;;;;;;4997816;28;20471;-74
2023/08/10 13:19:36;;;;;;;;;;;;;;;;;;4975735;28;19951;-74
2023/08/10 13:22:01;;;;;;;;;;;;;;;;;;5004376;28;20381;-74
2023/08/10 13:24:27;;;;;;;;;;;;;;;;;;4988075;28;20327;-76
2023/08/10 13:26:53;;;;;;;;;;;;;;;;;;5001986;28;19921;-75
2023/08/10 13:29:18;;;;;;;;;;;;;;;;;;5002248;28;19929;-74
2023/08/10 13:31:49;;;;;;;;;;;;;;;;;;4985294;28;19963;-76
2023/08/10 13:34:14;;;;;;;;;;;;;;;;;;4990823;28;20010;-77
2023/08/10 13:36:40;;;;;;;;;;;;;;;;;;5005403;28;19917;-76
2023/08/10 13:39:06;;;;;;;;;;;;;;;;;;5006929;28;19949;-76
2023/08/10 13:41:31;;;;;;;;;;;;;;;;;;4977993;28;20258;-77
2023/08/10 13:43:57;;;;;;;;;;;;;;;;;;4987516;28;19921;-76
2023/08/10 13:46:22;;;;;;;;;;;;;;;;;;4989776;28;19923;-76
2023/08/10 13:48:47;;;;;;;;;;;;;;;;;;4974793;28;20371;-76
2023/08/10 13:51:13;;;;;;;;;;;;;;;;;;4991012;28;21147;-75
2023/08/10 13:53:38;;;;;;;;;;;;;;;;;;5006823;28;19921;-76
2023/08/10 13:56:04;;;;;;;;;;;;;;;;;;4990217;28;19983;-75
2023/08/10 13:58:29;;;;;;;;;;;;;;;;;;4972996;28;20055;-76
2023/08/10 14:00:55;;;;;;;;;;;;;;;;;;4991604;28;19921;-76
2023/08/10 14:03:20;;;;;;;;;;;;;;;;;;4986973;28;19927;-75
2023/08/10 14:05:46;;;;;;;;;;;;;;;;;;4989076;28;19921;-76
2023/08/10 14:08:11;;;;;;;;;;;;;;;;;;4988285;28;20191;-73
2023/08/10 14:10:37;;;;;;;;;;;;;;;;;;4995696;28;20181;-73
2023/08/10 14:13:03;;;;;;;;;;;;;;;;;;4982155;28;19924;-74
2023/08/10 14:15:28;;;;;;;;;;;;;;;;;;4984805;28;19921;-73
2023/08/10 14:17:56;;;;;;;;;;;;;;;;;;4984175;28;21412;-73
2023/08/10 14:20:21;;;;;;;;;;;;;;;;;;4971506;28;21640;-73
2023/08/10 14:22:47;;;;;;;;;;;;;;;;;;4987300;28;20300;-73
2023/08/10 14:25:12;;;;;;;;;;;;;;;;;;4985164;28;19928;-73
2023/08/10 14:27:38;;;;;;;;;;;;;;;;;;5002517;28;19925;-73
2023/08/10 14:30:03;;;;;;;;;;;;;;;;;;4990885;28;19917;-73
2023/08/10 14:32:28;;;;;;;;;;;;;;;;;;4973265;28;20289;-73
2023/08/10 14:34:54;;;;;;;;;;;;;;;;;;4989153;28;20007;-73
2023/08/10 14:37:19;;;;;;;;;;;;;;;;;;4978497;28;20414;-74
2023/08/10 14:39:47;;;;;;;;;;;;;;;;;;4996911;28;20522;-74
2023/08/10 14:42:12;;;;;;;;;;;;;;;;;;4994744;28;19925;-74
2023/08/10 14:44:37;;;;;;;;;;;;;;;;;;4989201;28;19929;-74
2023/08/10 14:47:03;;;;;;;;;;;;;;;;;;4995467;28;20670;-74
2023/08/10 14:49:30;;;;;;;;;;;;;;;;;;4986715;28;19925;-74
2023/08/10 14:51:55;;;;;;;;;;;;;;;;;;5002391;28;20367;-73
2023/08/10 14:54:21;;;;;;;;;;;;;;;;;;4986877;28;19917;-74
2023/08/10 14:56:46;;;;;;;;;;;;;;;;;;4989513;28;20692;-74
2023/08/10 14:59:11;;;;;;;;;;;;;;;;;;4998281;28;19933;-73
2023/08/10 15:01:39;;;;;;;;;;;;;;;;;;4996786;28;20022;-73
2023/08/10 15:04:08;;;;;;;;;;;;;;;;;;5000567;28;20380;-74
2023/08/10 15:06:37;;;;;;;;;;;;;;;;;;5002643;28;19924;-74
2023/08/10 15:09:03;;;;;;;;;;;;;;;;;;4982663;28;20416;-73
2023/08/10 15:11:30;;;;;;;;;;;;;;;;;;5000973;28;19921;-74
2023/08/10 15:13:58;;;;;;;;;;;;;;;;;;4999382;28;19918;-74
2023/08/10 15:16:23;;;;;;;;;;;;;;;;;;4968770;28;19932;-74
2023/08/10 15:18:49;;;;;;;;;;;;;;;;;;4976029;28;19929;-74
2023/08/10 15:21:16;;;;;;;;;;;;;;;;;;4998883;28;19917;-74
2023/08/10 15:23:42;;;;;;;;;;;;;;;;;;4988043;28;21106;-74
2023/08/10 15:26:07;;;;;;;;;;;;;;;;;;4984783;28;19917;-75
2023/08/10 15:28:33;;;;;;;;;;;;;;;;;;4992985;28;19921;-74
2023/08/10 15:31:00;;;;;;;;;;;;;;;;;;4975340;28;20355;-74
2023/08/10 15:33:26;;;;;;;;;;;;;;;;;;4995874;28;19917;-74
2023/08/10 15:35:51;;;;;;;;;;;;;;;;;;4983495;28;20031;-74
2023/08/10 15:38:16;;;;;;;;;;;;;;;;;;4999841;28;20460;-74
2023/08/10 15:40:41;;;;;;;;;;;;;;;;;;4984844;28;19925;-75
2023/08/10 15:43:07;;;;;;;;;;;;;;;;;;4971374;28;19971;-74
2023/08/10 15:45:32;;;;;;;;;;;;;;;;;;4987336;28;20455;-74
2023/08/10 15:48:00;;;;;;;;;;;;;;;;;;4981681;28;19917;-74
2023/08/10 15:50:26;;;;;;;;;;;;;;;;;;4980616;28;20415;-74
2023/08/10 15:52:51;;;;;;;;;;;;;;;;;;4987472;28;19921;-74
2023/08/10 15:55:17;;;;;;;;;;;;;;;;;;4984576;28;19924;-75
2023/08/10 15:57:42;;;;;;;;;;;;;;;;;;4998749;28;19932;-73
2023/08/10 16:00:12;;;;;;;;;;;;;;;;;;4978719;28;20115;-73
2023/08/10 16:02:39;;;;;;;;;;;;;;;;;;4968566;28;20585;-74
2023/08/10 16:05:05;;;;;;;;;;;;;;;;;;4988893;28;19921;-74
2023/08/10 16:07:30;;;;;;;;;;;;;;;;;;4984394;28;19956;-74
2023/08/10 16:09:57;;;;;;;;;;;;;;;;;;5000210;28;20436;-75
2023/08/10 16:12:22;;;;;;;;;;;;;;;;;;4987073;28;19924;-75
2023/08/10 16:14:47;;;;;;;;;;;;;;;;;;4988089;28;19917;-74
2023/08/10 16:17:13;;;;;;;;;;;;;;;;;;4980136;28;21410;-74
2023/08/10 16:19:38;;;;;;;;;;;;;;;;;;4987537;28;20016;-74
2023/08/10 16:22:03;;;;;;;;;;;;;;;;;;5000587;28;20462;-75
2023/08/10 16:24:29;;;;;;;;;;;;;;;;;;4981832;28;20318;-75
2023/08/10 16:26:54;;;;;;;;;;;;;;;;;;4998387;28;19988;-74
2023/08/10 16:29:20;;;;;;;;;;;;;;;;;;4971701;28;19925;-73
2023/08/10 16:31:45;;;;;;;;;;;;;;;;;;5000833;28;19928;-73
2023/08/10 16:34:11;;;;;;;;;;;;;;;;;;4967897;28;20016;-75
2023/08/10 16:36:36;;;;;;;;;;;;;;;;;;5001751;28;19917;-74